createdAt,value
2019-05-02T00:01:50.010Z,95.92
2019-05-02T00:04:21.311Z,96.04
2019-05-02T00:07:07.763Z,95.66
2019-05-02T00:09:47.393Z,95.74
2019-05-02T00:12:13.246Z,95.51
2019-05-02T00:14:43.664Z,95.93
2019-05-02T00:17:25.831Z,95.49
2019-05-02T00:19:55.290Z,95.83
2019-05-02T00:22:25.840Z,96.28
2019-05-02T00:24:56.279Z,96.94
2019-05-02T00:27:26.727Z,96.40
2019-05-02T00:29:58.658Z,97.49
2019-05-02T00:32:32.642Z,97.24
2019-05-02T00:35:10.776Z,97.48
2019-05-02T00:37:43.887Z,97.49
2019-05-02T00:40:29.655Z,97.40
2019-05-02T00:43:01.905Z,97.33
2019-05-02T00:45:33.618Z,97.83
2019-05-02T00:48:23.224Z,98.22
2019-05-02T00:50:58.271Z,97.96
2019-05-02T00:53:36.535Z,97.51
2019-05-02T00:56:09.120Z,98.05
2019-05-02T00:58:42.650Z,97.14
2019-05-02T01:01:29.436Z,97.75
2019-05-02T01:04:27.523Z,98.22
2019-05-02T01:06:56.838Z,98.35
2019-05-02T01:09:27.297Z,99.26
2019-05-02T01:11:57.859Z,98.85
2019-05-02T01:14:31.884Z,98.66
2019-05-02T01:17:12.954Z,98.24
2019-05-02T01:19:47.359Z,99.24
2019-05-02T01:22:16.371Z,98.87
2019-05-02T01:24:49.284Z,98.85
2019-05-02T01:27:28.662Z,98.89
2019-05-02T01:30:18.277Z,97.76
2019-05-02T01:33:06.474Z,97.72
2019-05-02T01:35:53.068Z,97.99
2019-05-02T01:38:34.411Z,98.21
2019-05-02T01:41:04.851Z,97.73
2019-05-02T01:43:35.293Z,97.30
2019-05-02T01:46:17.215Z,97.71
2019-05-02T01:48:47.895Z,97.93
2019-05-02T01:51:18.363Z,97.99
2019-05-02T01:53:48.809Z,98.51
2019-05-02T01:56:19.226Z,98.08
2019-05-02T01:58:53.059Z,98.26
2019-05-02T02:01:23.322Z,98.62
2019-05-02T02:03:53.820Z,98.85
2019-05-02T02:06:24.217Z,98.95
2019-05-02T02:08:54.665Z,98.31
2019-05-02T02:11:28.314Z,98.13
2019-05-02T02:13:57.253Z,98.21
2019-05-02T02:16:27.742Z,98.11
2019-05-02T02:19:05.413Z,98.25
2019-05-02T02:21:43.203Z,98.68
2019-05-02T02:24:21.051Z,98.60
2019-05-02T02:26:50.272Z,99.00
2019-05-02T02:29:20.699Z,99.12
2019-05-02T02:31:51.094Z,99.15
2019-05-02T02:34:29.215Z,99.09
2019-05-02T02:36:53.693Z,98.99
2019-05-02T02:39:24.169Z,99.16
2019-05-02T02:41:59.712Z,98.99
2019-05-02T02:45:04.368Z,98.95
2019-05-02T02:47:34.767Z,99.58
2019-05-02T02:50:05.595Z,99.85
2019-05-02T02:52:37.753Z,99.92
2019-05-02T02:55:09.214Z,99.80
2019-05-02T02:57:39.649Z,99.73
2019-05-02T03:00:11.109Z,99.66
2019-05-02T03:02:47.614Z,100.00
2019-05-02T03:05:18.748Z,100.00
2019-05-02T03:07:47.357Z,100.00
2019-05-02T03:10:18.340Z,100.00
2019-05-02T03:13:06.419Z,100.00
2019-05-02T03:15:41.877Z,100.00
2019-05-02T03:18:12.587Z,100.00
2019-05-02T03:20:43.086Z,100.00
2019-05-02T03:23:21.677Z,100.00
2019-05-02T03:25:51.408Z,100.00
2019-05-02T03:28:22.103Z,100.00
2019-05-02T03:30:55.000Z,100.00
2019-05-02T03:33:26.987Z,100.00
2019-05-02T03:36:00.067Z,100.00
2019-05-02T03:38:32.752Z,100.00
2019-05-02T03:41:02.655Z,100.00
2019-05-02T03:43:33.188Z,100.00
2019-05-02T03:46:03.610Z,100.00
2019-05-02T03:48:35.245Z,100.00
2019-05-02T03:51:21.585Z,100.00
2019-05-02T03:53:46.253Z,100.00
2019-05-02T03:56:16.900Z,100.00
2019-05-02T03:58:48.589Z,100.00
2019-05-02T04:01:19.995Z,100.00
2019-05-02T04:03:50.407Z,100.00
2019-05-02T04:06:23.672Z,100.00
2019-05-02T04:08:59.826Z,100.00
2019-05-02T04:11:38.339Z,100.00
2019-05-02T04:14:01.868Z,100.00
2019-05-02T04:16:33.228Z,100.00
2019-05-02T04:19:06.353Z,100.00
2019-05-02T04:21:39.502Z,100.00
2019-05-02T04:24:15.129Z,100.00
2019-05-02T04:26:52.663Z,100.00
2019-05-02T04:29:17.096Z,100.00
2019-05-02T04:31:49.130Z,100.00
2019-05-02T04:34:19.572Z,100.00
2019-05-02T04:36:59.899Z,100.00
2019-05-02T04:39:22.232Z,100.00
2019-05-02T04:41:52.746Z,100.00
2019-05-02T04:44:31.567Z,100.00
2019-05-02T04:46:59.714Z,100.00
2019-05-02T04:49:33.010Z,100.00
2019-05-02T04:52:07.092Z,100.00
2019-05-02T04:54:32.920Z,100.00
2019-05-02T04:57:08.215Z,100.00
2019-05-02T04:59:39.819Z,100.00
2019-05-02T05:02:11.834Z,100.00
2019-05-02T05:04:46.259Z,100.00
2019-05-02T05:07:14.518Z,100.00
2019-05-02T05:09:47.880Z,100.00
2019-05-02T05:12:19.450Z,100.00
2019-05-02T05:14:51.025Z,100.00
2019-05-02T05:17:25.206Z,100.00
2019-05-02T05:19:53.849Z,100.00
2019-05-02T05:22:24.354Z,100.00
2019-05-02T05:25:07.509Z,100.00
2019-05-02T05:27:38.170Z,100.00
2019-05-02T05:30:15.210Z,100.00
2019-05-02T05:32:41.049Z,100.00
2019-05-02T05:35:13.288Z,100.00
2019-05-02T05:37:51.419Z,100.00
2019-05-02T05:40:17.674Z,99.07
2019-05-02T05:42:48.474Z,98.17
2019-05-02T05:45:19.521Z,97.38
2019-05-02T05:48:01.939Z,98.34
2019-05-02T05:50:41.530Z,97.23
2019-05-02T05:53:07.921Z,96.09
2019-05-02T05:55:39.692Z,95.47
2019-05-02T05:58:15.333Z,96.88
2019-05-02T06:00:45.943Z,94.03
2019-05-02T06:03:17.753Z,94.14
2019-05-02T06:05:47.960Z,95.10
2019-05-02T06:08:19.975Z,95.81
2019-05-02T06:10:50.717Z,92.97
2019-05-02T06:13:21.168Z,95.00
2019-05-02T06:16:02.246Z,93.87
2019-05-02T06:18:28.214Z,92.33
2019-05-02T06:20:58.504Z,92.63
2019-05-02T06:23:30.986Z,92.81
2019-05-02T06:26:07.966Z,91.09
2019-05-02T06:28:41.667Z,89.74
2019-05-02T06:31:10.564Z,89.89
2019-05-02T06:33:41.691Z,89.08
2019-05-02T06:36:21.295Z,88.94
2019-05-02T06:38:58.348Z,84.97
2019-05-02T06:41:28.988Z,84.79
2019-05-02T06:43:59.864Z,85.18
2019-05-02T06:46:30.363Z,84.63
2019-05-02T06:49:05.083Z,83.46
2019-05-02T06:51:35.490Z,82.36
2019-05-02T06:54:05.946Z,83.21
2019-05-02T06:56:36.350Z,79.56
2019-05-02T06:59:07.078Z,80.80
2019-05-02T07:01:57.400Z,81.07
2019-05-02T07:04:28.505Z,79.34
2019-05-02T07:07:00.047Z,77.73
2019-05-02T07:09:40.758Z,77.00
2019-05-02T07:12:09.904Z,76.99
2019-05-02T07:14:40.753Z,77.27
2019-05-02T07:17:32.064Z,78.50
2019-05-02T07:20:03.942Z,77.83
2019-05-02T07:22:53.091Z,75.61
2019-05-02T07:25:24.756Z,74.91
2019-05-02T07:27:55.625Z,74.88
2019-05-02T07:30:36.292Z,74.98
2019-05-02T07:33:09.579Z,74.42
2019-05-02T07:35:43.130Z,72.56
2019-05-02T07:38:14.372Z,72.37
2019-05-02T07:40:48.144Z,72.24
2019-05-02T07:43:21.142Z,72.66
2019-05-02T07:45:50.144Z,70.17
2019-05-02T07:48:24.306Z,69.86
2019-05-02T07:50:57.229Z,70.00
2019-05-02T07:53:27.648Z,68.79
2019-05-02T07:55:58.162Z,67.50
2019-05-02T07:58:32.781Z,67.98
2019-05-02T08:01:08.065Z,67.33
2019-05-02T08:03:36.924Z,66.68
2019-05-02T08:06:07.338Z,67.37
2019-05-02T08:08:38.109Z,68.30
2019-05-02T08:11:10.911Z,67.74
2019-05-02T08:13:44.502Z,66.85
2019-05-02T08:16:15.144Z,66.69
2019-05-02T08:18:47.322Z,67.08
2019-05-02T08:21:17.847Z,68.51
2019-05-02T08:23:48.279Z,66.89
2019-05-02T08:26:21.651Z,65.43
2019-05-02T08:29:06.415Z,65.98
2019-05-02T08:31:39.973Z,64.80
2019-05-02T08:34:15.040Z,63.94
2019-05-02T08:36:42.667Z,63.32
2019-05-02T08:39:16.185Z,63.67
2019-05-02T08:41:51.304Z,62.03
2019-05-02T08:44:20.566Z,59.64
2019-05-02T08:46:53.202Z,60.07
2019-05-02T08:49:24.291Z,60.00
2019-05-02T08:51:54.781Z,60.50
2019-05-02T08:54:28.028Z,58.91
2019-05-02T08:57:03.083Z,58.20
2019-05-02T08:59:40.836Z,56.76
2019-05-02T09:02:10.249Z,54.47
2019-05-02T09:04:40.642Z,51.95
2019-05-02T09:07:14.299Z,51.27
2019-05-02T09:09:44.989Z,54.71
2019-05-02T09:12:21.081Z,53.29
2019-05-02T09:14:54.073Z,51.88
2019-05-02T09:17:35.113Z,50.80
2019-05-02T09:20:02.386Z,49.66
2019-05-02T09:23:02.121Z,50.58
2019-05-02T09:26:02.725Z,50.76
2019-05-02T09:28:33.826Z,50.13
2019-05-02T09:31:07.464Z,50.67
2019-05-02T09:33:42.435Z,47.10
2019-05-02T09:36:13.200Z,47.07
2019-05-02T09:38:48.766Z,46.72
2019-05-02T09:41:26.850Z,45.73
2019-05-02T09:43:58.142Z,45.88
2019-05-02T09:46:35.923Z,45.82
2019-05-02T09:49:11.948Z,46.31
2019-05-02T09:51:42.047Z,42.52
2019-05-02T09:54:15.868Z,42.68
2019-05-02T09:56:47.512Z,42.35
2019-05-02T09:59:33.064Z,41.74
2019-05-02T10:02:07.297Z,40.48
2019-05-02T10:04:37.732Z,39.83
2019-05-02T10:07:12.749Z,39.69
2019-05-02T10:09:43.964Z,38.35
2019-05-02T10:12:17.282Z,37.95
2019-05-02T10:14:47.717Z,36.66
2019-05-02T10:17:23.145Z,38.90
2019-05-02T10:19:57.397Z,37.24
2019-05-02T10:22:32.260Z,36.21
2019-05-02T10:25:04.086Z,38.33
2019-05-02T10:27:38.419Z,37.74
2019-05-02T10:30:11.903Z,37.94
2019-05-02T10:32:42.748Z,37.58
2019-05-02T10:35:18.107Z,37.30
2019-05-02T10:37:52.133Z,36.26
2019-05-02T10:40:22.838Z,35.68
2019-05-02T10:42:53.254Z,36.98
2019-05-02T10:45:24.111Z,38.05
2019-05-02T10:48:02.271Z,37.35
2019-05-02T10:50:42.946Z,37.78
2019-05-02T10:53:15.811Z,37.17
2019-05-02T10:55:46.672Z,36.79
2019-05-02T10:58:25.854Z,38.38
2019-05-02T11:01:02.749Z,39.62
2019-05-02T11:03:43.786Z,38.91
2019-05-02T11:06:12.651Z,38.00
2019-05-02T11:08:46.231Z,37.38
2019-05-02T11:11:17.834Z,37.76
2019-05-02T11:14:08.756Z,36.92
2019-05-02T11:17:08.848Z,38.00
2019-05-02T11:19:45.349Z,37.29
2019-05-02T11:22:35.203Z,35.79
2019-05-02T11:25:08.695Z,35.70
2019-05-02T11:27:41.845Z,37.20
2019-05-02T11:30:16.818Z,35.06
2019-05-02T11:32:46.100Z,35.12
2019-05-02T11:35:16.899Z,36.78
2019-05-02T11:37:47.931Z,36.89
2019-05-02T11:40:22.902Z,36.37
2019-05-02T11:43:02.775Z,34.83
2019-05-02T11:45:32.227Z,35.26
2019-05-02T11:48:09.348Z,35.16
2019-05-02T11:50:39.784Z,37.30
2019-05-02T11:53:24.829Z,37.71
2019-05-02T11:55:43.893Z,38.81
2019-05-02T11:58:14.418Z,39.45
2019-05-02T12:00:49.463Z,40.20
2019-05-02T12:03:42.361Z,41.29
2019-05-02T12:06:17.073Z,40.93
2019-05-02T12:08:52.526Z,41.00
2019-05-02T12:11:23.153Z,41.07
2019-05-02T12:13:57.798Z,41.81
2019-05-02T12:16:32.316Z,41.17
2019-05-02T12:19:11.290Z,41.29
2019-05-02T12:21:41.997Z,41.50
2019-05-02T12:24:18.517Z,40.93
2019-05-02T12:26:49.188Z,41.66
2019-05-02T12:29:22.443Z,42.28
2019-05-02T12:32:12.054Z,41.73
2019-05-02T12:34:42.838Z,40.75
2019-05-02T12:37:13.890Z,41.24
2019-05-02T12:39:46.505Z,41.21
2019-05-02T12:42:17.598Z,41.27
2019-05-02T12:44:49.937Z,42.00
2019-05-02T12:47:26.390Z,42.01
2019-05-02T12:50:00.086Z,42.42
2019-05-02T12:52:33.947Z,41.93
2019-05-02T12:55:06.963Z,42.69
2019-05-02T12:57:38.786Z,43.81
2019-05-02T13:00:12.827Z,43.79
2019-05-02T13:02:52.498Z,44.07
2019-05-02T13:05:27.511Z,44.02
2019-05-02T13:07:58.299Z,42.83
2019-05-02T13:11:07.063Z,42.18
2019-05-02T13:13:39.171Z,42.76
2019-05-02T13:16:12.226Z,42.49
2019-05-02T13:18:43.882Z,42.10
2019-05-02T13:21:17.123Z,42.21
2019-05-02T13:23:56.349Z,42.78
2019-05-02T13:26:39.640Z,44.06
2019-05-02T13:29:16.189Z,44.68
2019-05-02T13:32:19.376Z,45.50
2019-05-02T13:35:02.215Z,44.64
2019-05-02T13:37:33.314Z,44.94
2019-05-02T13:40:20.220Z,45.35
2019-05-02T13:42:52.407Z,45.86
2019-05-02T13:45:44.669Z,46.61
2019-05-02T13:48:15.219Z,46.15
2019-05-02T13:50:51.913Z,47.30
2019-05-02T13:53:23.359Z,46.61
2019-05-02T13:56:14.443Z,46.81
2019-05-02T13:58:49.273Z,47.11
2019-05-02T14:01:22.433Z,46.50
2019-05-02T14:04:03.638Z,47.34
2019-05-02T14:06:37.925Z,47.74
2019-05-02T14:09:26.103Z,47.59
2019-05-02T14:12:04.174Z,48.13
2019-05-02T14:14:38.151Z,46.87
2019-05-02T14:17:11.789Z,46.88
2019-05-02T14:19:43.252Z,45.75
2019-05-02T14:22:15.271Z,45.87
2019-05-02T14:24:47.996Z,46.63
2019-05-02T14:27:22.211Z,46.37
2019-05-02T14:30:02.253Z,46.78
2019-05-02T14:32:28.038Z,47.73
2019-05-02T14:35:18.582Z,47.43
2019-05-02T14:37:47.213Z,49.29
2019-05-02T14:40:26.309Z,49.10
2019-05-02T14:43:07.095Z,49.65
2019-05-02T14:45:36.330Z,48.50
2019-05-02T14:48:24.168Z,48.44
2019-05-02T14:50:52.147Z,49.02
2019-05-02T14:53:25.458Z,48.07
2019-05-02T14:56:15.096Z,48.06
2019-05-02T14:58:48.355Z,48.79
2019-05-02T15:01:26.135Z,48.12
2019-05-02T15:04:08.712Z,48.72
2019-05-02T15:06:47.734Z,47.31
2019-05-02T15:09:26.841Z,47.74
2019-05-02T15:12:02.402Z,47.34
2019-05-02T15:14:40.289Z,48.27
2019-05-02T15:17:18.318Z,48.93
2019-05-02T15:19:52.682Z,48.66
2019-05-02T15:22:27.504Z,49.27
2019-05-02T15:24:59.828Z,48.76
2019-05-02T15:27:58.575Z,48.73
2019-05-02T15:30:29.966Z,48.12
2019-05-02T15:33:17.193Z,48.44
2019-05-02T15:35:57.312Z,47.77
2019-05-02T15:38:28.318Z,47.43
2019-05-02T15:41:07.026Z,46.91
2019-05-02T15:43:39.330Z,47.18
2019-05-02T15:46:10.168Z,47.75
2019-05-02T15:48:43.915Z,48.40
2019-05-02T15:51:15.971Z,49.21
2019-05-02T15:54:07.073Z,48.26
2019-05-02T15:56:36.866Z,48.40
2019-05-02T15:59:10.669Z,48.05
2019-05-02T16:01:57.081Z,49.25
2019-05-02T16:04:33.979Z,49.04
2019-05-02T16:07:30.334Z,48.16
2019-05-02T16:10:03.348Z,47.95
2019-05-02T16:12:42.067Z,48.01
2019-05-02T16:15:21.029Z,49.57
2019-05-02T16:17:52.173Z,48.45
2019-05-02T16:20:47.362Z,49.23
2019-05-02T16:23:18.961Z,48.63
2019-05-02T16:25:48.448Z,49.39
2019-05-02T16:28:21.644Z,48.95
2019-05-02T16:30:57.428Z,49.58
2019-05-02T16:33:31.927Z,49.29
2019-05-02T16:36:33.817Z,48.47
2019-05-02T16:39:05.188Z,48.62
2019-05-02T16:41:41.293Z,48.91
2019-05-02T16:44:19.999Z,48.56
2019-05-02T16:46:54.352Z,48.76
2019-05-02T16:49:35.330Z,48.39
2019-05-02T16:52:08.679Z,49.15
2019-05-02T16:54:41.708Z,49.69
2019-05-02T16:57:12.654Z,50.11
2019-05-02T16:59:56.189Z,50.57
2019-05-02T17:02:29.202Z,51.72
2019-05-02T17:05:09.369Z,51.45
2019-05-02T17:07:59.358Z,52.71
2019-05-02T17:10:36.824Z,53.85
2019-05-02T17:13:13.379Z,56.57
2019-05-02T17:15:54.109Z,55.49
2019-05-02T17:18:56.424Z,55.47
2019-05-02T17:21:33.713Z,57.26
2019-05-02T17:24:02.565Z,57.30
2019-05-02T17:26:36.855Z,58.76
2019-05-02T17:29:07.771Z,58.51
2019-05-02T17:31:40.089Z,58.16
2019-05-02T17:34:15.286Z,58.94
2019-05-02T17:36:59.068Z,59.87
2019-05-02T17:39:42.637Z,60.48
2019-05-02T17:42:22.343Z,61.01
2019-05-02T17:44:51.792Z,61.06
2019-05-02T17:47:23.836Z,61.13
2019-05-02T17:49:57.041Z,61.49
2019-05-02T17:52:34.639Z,62.51
2019-05-02T17:55:12.052Z,63.40
2019-05-02T17:58:04.567Z,63.19
2019-05-02T18:00:43.048Z,62.78
2019-05-02T18:03:16.991Z,63.58
2019-05-02T18:05:54.271Z,63.76
2019-05-02T18:08:36.184Z,62.37
2019-05-02T18:11:12.710Z,63.89
2019-05-02T18:13:47.757Z,65.74
2019-05-02T18:16:22.353Z,65.83
2019-05-02T18:18:52.873Z,65.70
2019-05-02T18:21:28.643Z,66.43
2019-05-02T18:24:23.637Z,66.45
2019-05-02T18:26:54.210Z,67.58
2019-05-02T18:29:27.168Z,66.71
2019-05-02T18:31:59.167Z,67.38
2019-05-02T18:34:51.970Z,67.60
2019-05-02T18:37:25.372Z,67.68
2019-05-02T18:40:05.275Z,68.44
2019-05-02T18:42:38.032Z,68.61
2019-05-02T18:45:18.318Z,68.99
2019-05-02T18:47:54.020Z,68.06
2019-05-02T18:50:46.910Z,68.54
2019-05-02T18:53:18.585Z,69.82
2019-05-02T18:55:56.701Z,69.64
2019-05-02T18:58:36.237Z,70.31
2019-05-02T19:01:08.489Z,70.05
2019-05-02T19:03:52.629Z,71.73
2019-05-02T19:06:19.730Z,71.63
2019-05-02T19:08:52.261Z,72.41
2019-05-02T19:11:26.856Z,72.58
2019-05-02T19:13:59.203Z,72.38
2019-05-02T19:16:38.609Z,73.21
2019-05-02T19:19:13.210Z,73.48
2019-05-02T19:21:49.388Z,73.07
2019-05-02T19:24:27.493Z,73.07
2019-05-02T19:27:02.536Z,74.05
2019-05-02T19:29:36.304Z,73.51
2019-05-02T19:32:12.329Z,73.60
2019-05-02T19:34:46.359Z,73.56
2019-05-02T19:37:21.705Z,74.86
2019-05-02T19:39:52.492Z,76.18
2019-05-02T19:42:28.920Z,76.44
2019-05-02T19:45:03.672Z,76.68
2019-05-02T19:47:54.330Z,77.58
2019-05-02T19:50:43.043Z,76.94
2019-05-02T19:53:34.577Z,76.41
2019-05-02T19:56:07.167Z,76.60
2019-05-02T19:58:42.742Z,77.47
2019-05-02T20:01:17.532Z,78.64
2019-05-02T20:03:56.767Z,77.44
2019-05-02T20:06:46.172Z,76.83
2019-05-02T20:09:23.792Z,79.12
2019-05-02T20:11:57.198Z,79.97
2019-05-02T20:14:27.913Z,81.13
2019-05-02T20:17:20.210Z,81.43
2019-05-02T20:20:05.389Z,81.34
2019-05-02T20:22:40.993Z,82.29
2019-05-02T20:25:12.849Z,80.75
2019-05-02T20:27:48.091Z,81.83
2019-05-02T20:30:19.136Z,82.13
2019-05-02T20:32:57.692Z,80.90
2019-05-02T20:35:34.102Z,81.11
2019-05-02T20:38:06.211Z,82.62
2019-05-02T20:40:42.694Z,82.08
2019-05-02T20:43:16.910Z,83.43
2019-05-02T20:46:02.373Z,83.00
2019-05-02T20:48:34.451Z,83.68
2019-05-02T20:51:05.128Z,82.16
2019-05-02T20:53:36.094Z,83.87
2019-05-02T20:56:07.192Z,83.06
2019-05-02T20:58:46.711Z,83.88
2019-05-02T21:01:21.554Z,84.62
2019-05-02T21:03:52.325Z,85.18
2019-05-02T21:06:40.863Z,84.89
2019-05-02T21:09:47.541Z,85.98
2019-05-02T21:12:22.802Z,86.40
2019-05-02T21:14:53.215Z,86.05
2019-05-02T21:17:25.217Z,87.00
2019-05-02T21:19:57.543Z,87.30
2019-05-02T21:22:32.718Z,86.87
2019-05-02T21:25:03.579Z,87.26
2019-05-02T21:27:35.323Z,87.35
2019-05-02T21:30:08.393Z,86.95
2019-05-02T21:32:40.208Z,86.29
2019-05-02T21:35:11.901Z,86.58
2019-05-02T21:37:42.591Z,86.81
2019-05-02T21:40:20.112Z,87.23
2019-05-02T21:42:52.273Z,87.49
2019-05-02T21:45:28.279Z,87.34
2019-05-02T21:47:58.796Z,87.73
2019-05-02T21:50:58.933Z,87.53
2019-05-02T21:53:38.091Z,88.31
2019-05-02T21:56:25.401Z,88.66
2019-05-02T21:59:12.329Z,87.89
2019-05-02T22:01:52.187Z,88.73
2019-05-02T22:04:31.754Z,88.96
2019-05-02T22:07:05.303Z,85.53
2019-05-02T22:09:36.251Z,88.69
2019-05-02T22:12:11.948Z,88.11
2019-05-02T22:14:46.655Z,88.78
2019-05-02T22:17:21.578Z,88.92
2019-05-02T22:19:52.597Z,88.96
2019-05-02T22:22:23.118Z,89.26
2019-05-02T22:24:53.585Z,90.72
2019-05-02T22:27:28.754Z,89.58
2019-05-02T22:30:17.919Z,90.38
2019-05-02T22:32:51.688Z,90.70
2019-05-02T22:35:24.858Z,89.64
2019-05-02T22:37:58.049Z,90.56
2019-05-02T22:40:41.755Z,90.63
2019-05-02T22:43:01.964Z,91.00
2019-05-02T22:45:34.263Z,91.04
2019-05-02T22:48:04.805Z,91.61
2019-05-02T22:50:35.246Z,91.39
2019-05-02T22:53:05.661Z,91.73
2019-05-02T22:55:37.427Z,91.85
2019-05-02T22:58:10.725Z,91.92
2019-05-02T23:00:41.634Z,92.27
2019-05-02T23:03:12.577Z,92.02
2019-05-02T23:05:43.150Z,92.11
2019-05-02T23:08:13.539Z,92.52
2019-05-02T23:11:08.865Z,92.47
2019-05-02T23:13:39.641Z,92.56
2019-05-02T23:16:10.076Z,92.44
2019-05-02T23:18:42.591Z,92.10
2019-05-02T23:21:13.118Z,92.85
2019-05-02T23:23:45.890Z,93.03
2019-05-02T23:26:47.475Z,93.18
2019-05-02T23:29:18.293Z,93.48
2019-05-02T23:31:49.048Z,93.68
2019-05-02T23:34:23.295Z,93.07
2019-05-02T23:36:52.517Z,91.09
2019-05-02T23:39:22.993Z,90.12
2019-05-02T23:41:53.689Z,89.07
2019-05-02T23:44:24.157Z,88.70
2019-05-02T23:46:57.083Z,87.97
2019-05-02T23:49:27.671Z,87.33
2019-05-02T23:51:59.480Z,87.40
2019-05-02T23:54:29.924Z,88.29
2019-05-02T23:57:00.367Z,89.28
2019-05-02T23:59:31.788Z,89.39
